createdAt,value
2017-09-07T00:00:06.595Z,1005.62
2017-09-07T00:00:47.196Z,1005.68
2017-09-07T00:01:27.791Z,1005.62
2017-09-07T00:02:08.378Z,1005.64
2017-09-07T00:02:48.954Z,1005.66
2017-09-07T00:03:29.555Z,1005.65
2017-09-07T00:04:10.149Z,1005.63
2017-09-07T00:04:50.742Z,1005.57
2017-09-07T00:05:31.348Z,1005.61
2017-09-07T00:06:11.929Z,1005.62
2017-09-07T00:06:52.561Z,1005.65
2017-09-07T00:07:33.143Z,1005.64
2017-09-07T00:08:13.711Z,1005.65
2017-09-07T00:08:54.311Z,1005.61
2017-09-07T00:09:34.908Z,1005.62
2017-09-07T00:10:15.518Z,1005.63
2017-09-07T00:10:56.124Z,1005.6
2017-09-07T00:11:36.714Z,1005.66
2017-09-07T00:12:17.311Z,1005.6
2017-09-07T00:12:57.931Z,1005.63
2017-09-07T00:13:38.514Z,1005.58
2017-09-07T00:14:19.122Z,1005.62
2017-09-07T00:14:59.747Z,1005.62
2017-09-07T00:15:40.332Z,1005.55
2017-09-07T00:16:20.946Z,1005.62
2017-09-07T00:17:01.538Z,1005.65
2017-09-07T00:17:42.126Z,1005.62
2017-09-07T00:18:22.696Z,1005.6
2017-09-07T00:19:03.267Z,1005.67
2017-09-07T00:19:43.840Z,1005.64
2017-09-07T00:20:24.433Z,1005.69
2017-09-07T00:21:05.051Z,1005.66
2017-09-07T00:21:45.636Z,1005.67
2017-09-07T00:22:26.234Z,1005.7
2017-09-07T00:23:06.803Z,1005.64
2017-09-07T00:23:47.392Z,1005.68
2017-09-07T00:24:27.980Z,1005.63
2017-09-07T00:25:08.545Z,1005.66
2017-09-07T00:25:49.131Z,1005.66
2017-09-07T00:26:29.721Z,1005.63
2017-09-07T00:27:10.295Z,1005.64
2017-09-07T00:27:50.874Z,1005.63
2017-09-07T00:28:31.505Z,1005.64
2017-09-07T00:29:12.102Z,1005.59
2017-09-07T00:29:52.673Z,1005.67
2017-09-07T00:30:33.253Z,1005.68
2017-09-07T00:31:13.807Z,1005.69
2017-09-07T00:31:54.405Z,1005.69
2017-09-07T00:32:35.009Z,1005.65
2017-09-07T00:33:15.601Z,1005.63
2017-09-07T00:33:56.187Z,1005.65
2017-09-07T00:34:36.771Z,1005.69
2017-09-07T00:35:17.364Z,1005.61
2017-09-07T00:35:57.963Z,1005.68
2017-09-07T00:36:38.548Z,1005.67
2017-09-07T00:37:19.158Z,1005.68
2017-09-07T00:37:59.725Z,1005.68
2017-09-07T00:38:40.294Z,1005.67
2017-09-07T00:39:20.865Z,1005.65
2017-09-07T00:40:01.433Z,1005.65
2017-09-07T00:40:42.083Z,1005.69
2017-09-07T00:41:22.676Z,1005.69
2017-09-07T00:42:03.250Z,1005.67
2017-09-07T00:42:43.823Z,1005.62
2017-09-07T00:43:24.417Z,1005.64
2017-09-07T00:44:05.007Z,1005.68
2017-09-07T00:44:45.585Z,1005.64
2017-09-07T00:45:26.183Z,1005.64
2017-09-07T00:46:06.807Z,1005.69
2017-09-07T00:46:47.387Z,1005.68
2017-09-07T00:47:27.978Z,1005.54
2017-09-07T00:48:08.568Z,1005.51
2017-09-07T00:48:49.149Z,1005.58
2017-09-07T00:49:29.743Z,1005.63
2017-09-07T00:50:10.345Z,1005.59
2017-09-07T00:50:50.943Z,1005.59
2017-09-07T00:51:31.516Z,1005.52
2017-09-07T00:52:12.085Z,1005.57
2017-09-07T00:52:52.660Z,1005.57
2017-09-07T00:53:33.249Z,1005.58
2017-09-07T00:54:13.830Z,1005.59
2017-09-07T00:54:54.454Z,1005.6
2017-09-07T00:55:35.015Z,1005.58
2017-09-07T00:56:15.608Z,1005.64
2017-09-07T00:56:56.207Z,1005.56
2017-09-07T00:57:36.806Z,1005.61
2017-09-07T00:58:17.393Z,1005.54
2017-09-07T00:58:57.990Z,1005.55
2017-09-07T00:59:38.559Z,1005.53
2017-09-07T01:00:19.153Z,1005.53
2017-09-07T01:00:59.743Z,1005.51
2017-09-07T01:01:40.365Z,1005.53
2017-09-07T01:02:20.995Z,1005.52
2017-09-07T01:03:01.587Z,1005.48
2017-09-07T01:03:42.175Z,1005.54
2017-09-07T01:04:22.783Z,1005.56
2017-09-07T01:05:03.384Z,1005.53
2017-09-07T01:05:43.981Z,1005.5
2017-09-07T01:06:24.570Z,1005.49
2017-09-07T01:07:05.143Z,1005.51
2017-09-07T01:07:45.727Z,1005.51
2017-09-07T01:08:26.303Z,1005.49
2017-09-07T01:09:06.886Z,1005.44
2017-09-07T01:09:47.479Z,1005.53
2017-09-07T01:10:28.072Z,1005.5
2017-09-07T01:11:08.694Z,1005.45
2017-09-07T01:11:49.260Z,1005.47
2017-09-07T01:12:29.830Z,1005.43
2017-09-07T01:13:10.391Z,1005.46
2017-09-07T01:13:50.952Z,1005.43
2017-09-07T01:14:31.537Z,1005.48
2017-09-07T01:15:12.144Z,1005.48
2017-09-07T01:15:52.739Z,1005.47
2017-09-07T01:16:33.310Z,1005.45
2017-09-07T01:17:13.898Z,1005.43
2017-09-07T01:17:54.501Z,1005.45
2017-09-07T01:18:35.091Z,1005.47
2017-09-07T01:19:15.696Z,1005.48
2017-09-07T01:19:56.291Z,1005.44
2017-09-07T01:20:36.889Z,1005.44
2017-09-07T01:21:17.473Z,1005.39
2017-09-07T01:21:58.052Z,1005.43
2017-09-07T01:22:38.627Z,1005.42
2017-09-07T01:23:19.190Z,1005.4
2017-09-07T01:23:59.759Z,1005.4
2017-09-07T01:24:40.314Z,1005.37
2017-09-07T01:25:20.895Z,1005.43
2017-09-07T01:26:01.490Z,1005.44
2017-09-07T01:26:42.057Z,1005.44
2017-09-07T01:27:22.631Z,1005.42
2017-09-07T01:28:03.198Z,1005.45
2017-09-07T01:28:43.768Z,1005.51
2017-09-07T01:29:24.366Z,1005.44
2017-09-07T01:30:04.927Z,1005.46
2017-09-07T01:30:45.504Z,1005.45
2017-09-07T01:31:26.069Z,1005.38
2017-09-07T01:32:06.655Z,1005.41
2017-09-07T01:32:47.230Z,1005.39
2017-09-07T01:33:27.818Z,1005.46
2017-09-07T01:34:08.405Z,1005.5
2017-09-07T01:34:48.972Z,1005.38
2017-09-07T01:35:29.580Z,1005.42
2017-09-07T01:36:10.165Z,1005.38
2017-09-07T01:36:50.794Z,1005.44
2017-09-07T01:37:31.354Z,1005.42
2017-09-07T01:38:11.929Z,1005.4
2017-09-07T01:38:52.496Z,1005.4
2017-09-07T01:39:33.105Z,1005.41
2017-09-07T01:40:13.679Z,1005.38
2017-09-07T01:40:54.247Z,1005.38
2017-09-07T01:41:34.802Z,1005.43
2017-09-07T01:42:15.397Z,1005.38
2017-09-07T01:42:55.989Z,1005.43
2017-09-07T01:43:36.567Z,1005.43
2017-09-07T01:44:17.122Z,1005.44
2017-09-07T01:44:57.763Z,1005.43
2017-09-07T01:45:38.344Z,1005.42
2017-09-07T01:46:18.937Z,1005.46
2017-09-07T01:46:59.520Z,1005.43
2017-09-07T01:47:40.088Z,1005.4
2017-09-07T01:48:20.652Z,1005.42
2017-09-07T01:49:01.235Z,1005.49
2017-09-07T01:49:41.805Z,1005.44
2017-09-07T01:50:22.405Z,1005.37
2017-09-07T01:51:02.980Z,1005.51
2017-09-07T01:51:43.550Z,1005.59
2017-09-07T01:52:24.126Z,1005.51
2017-09-07T01:53:04.692Z,1005.58
2017-09-07T01:53:45.246Z,1005.47
2017-09-07T01:54:25.812Z,1005.55
2017-09-07T01:55:06.420Z,1005.54
2017-09-07T01:55:46.970Z,1005.55
2017-09-07T01:56:27.544Z,1005.55
2017-09-07T01:57:08.127Z,1005.52
2017-09-07T01:57:48.689Z,1005.53
2017-09-07T01:58:29.263Z,1005.49
2017-09-07T01:59:09.850Z,1005.59
2017-09-07T01:59:50.440Z,1005.58
2017-09-07T02:00:31.002Z,1005.48
2017-09-07T02:01:11.559Z,1005.54
2017-09-07T02:01:52.129Z,1005.5
2017-09-07T02:02:32.728Z,1005.53
2017-09-07T02:03:13.307Z,1005.54
2017-09-07T02:03:53.875Z,1005.49
2017-09-07T02:04:34.446Z,1005.57
2017-09-07T02:05:15.021Z,1005.55
2017-09-07T02:05:55.585Z,1005.51
2017-09-07T02:06:36.196Z,1005.59
2017-09-07T02:07:16.778Z,1005.56
2017-09-07T02:07:57.349Z,1005.53
2017-09-07T02:08:37.914Z,1005.58
2017-09-07T02:09:18.516Z,1005.59
2017-09-07T02:09:59.085Z,1005.6
2017-09-07T02:10:39.650Z,1005.57
2017-09-07T02:11:20.233Z,1005.57
2017-09-07T02:12:00.798Z,1005.65
2017-09-07T02:12:41.382Z,1005.62
2017-09-07T02:13:22.039Z,1005.56
2017-09-07T02:14:02.662Z,1005.55
2017-09-07T02:14:43.205Z,1005.58
2017-09-07T02:15:23.794Z,1005.59
2017-09-07T02:16:04.396Z,1005.55
2017-09-07T02:16:44.963Z,1005.6
2017-09-07T02:17:25.518Z,1005.64
2017-09-07T02:18:06.096Z,1005.61
2017-09-07T02:18:46.659Z,1005.59
2017-09-07T02:19:27.247Z,1005.61
2017-09-07T02:20:07.830Z,1005.6
2017-09-07T02:20:48.408Z,1005.58
2017-09-07T02:21:28.969Z,1005.57
2017-09-07T02:22:09.557Z,1005.57
2017-09-07T02:22:50.151Z,1005.59
2017-09-07T02:23:31.842Z,1005.59
2017-09-07T02:24:12.435Z,1005.54
2017-09-07T02:24:53.012Z,1005.53
2017-09-07T02:25:33.600Z,1005.62
2017-09-07T02:26:14.187Z,1005.53
2017-09-07T02:26:54.760Z,1005.55
2017-09-07T02:27:35.347Z,1005.57
2017-09-07T02:28:15.917Z,1005.55
2017-09-07T02:28:56.496Z,1005.61
2017-09-07T02:29:37.053Z,1005.58
2017-09-07T02:30:17.654Z,1005.66
2017-09-07T02:30:58.252Z,1005.58
2017-09-07T02:31:38.818Z,1005.57
2017-09-07T02:32:19.381Z,1005.58
2017-09-07T02:32:59.968Z,1005.63
2017-09-07T02:33:40.534Z,1005.58
2017-09-07T02:34:21.125Z,1005.5
2017-09-07T02:35:01.701Z,1005.55
2017-09-07T02:35:42.276Z,1005.58
2017-09-07T02:36:22.861Z,1005.55
2017-09-07T02:37:03.427Z,1005.62
2017-09-07T02:37:44.008Z,1005.57
2017-09-07T02:38:24.568Z,1005.56
2017-09-07T02:39:05.150Z,1005.58
2017-09-07T02:39:45.725Z,1005.56
2017-09-07T02:40:26.279Z,1005.55
2017-09-07T02:41:06.861Z,1005.57
2017-09-07T02:41:47.426Z,1005.54
2017-09-07T02:42:28.028Z,1005.56
2017-09-07T02:43:08.580Z,1005.55
2017-09-07T02:43:49.139Z,1005.59
2017-09-07T02:44:29.713Z,1005.56
2017-09-07T02:45:10.275Z,1005.56
2017-09-07T02:45:50.885Z,1005.61
2017-09-07T02:46:31.470Z,1005.55
2017-09-07T02:47:12.111Z,1005.54
2017-09-07T02:47:52.717Z,1005.61
2017-09-07T02:48:33.271Z,1005.64
2017-09-07T02:49:13.831Z,1005.58
2017-09-07T02:49:54.420Z,1005.59
2017-09-07T02:50:34.994Z,1005.54
2017-09-07T02:51:15.554Z,1005.51
2017-09-07T02:51:56.143Z,1005.61
2017-09-07T02:52:36.716Z,1005.55
2017-09-07T02:53:17.295Z,1005.57
2017-09-07T02:53:57.909Z,1005.64
2017-09-07T02:54:38.488Z,1005.57
2017-09-07T02:55:19.110Z,1005.57
2017-09-07T02:55:59.677Z,1005.55
2017-09-07T02:56:40.238Z,1005.55
2017-09-07T02:57:20.806Z,1005.55
2017-09-07T02:58:01.381Z,1005.51
2017-09-07T02:58:41.957Z,1005.55
2017-09-07T02:59:22.528Z,1005.53
2017-09-07T03:00:03.095Z,1005.57
2017-09-07T03:00:43.688Z,1005.56
2017-09-07T03:01:24.255Z,1005.57
2017-09-07T03:02:04.833Z,1005.57
2017-09-07T03:02:45.392Z,1005.58
2017-09-07T03:03:25.969Z,1005.51
2017-09-07T03:04:06.535Z,1005.54
2017-09-07T03:04:47.111Z,1005.51
2017-09-07T03:05:27.682Z,1005.57
2017-09-07T03:06:08.244Z,1005.57
2017-09-07T03:06:48.805Z,1005.5
2017-09-07T03:07:29.368Z,1005.52
2017-09-07T03:08:09.954Z,1005.55
2017-09-07T03:08:50.537Z,1005.5
2017-09-07T03:09:31.097Z,1005.49
2017-09-07T03:10:11.677Z,1005.52
2017-09-07T03:10:52.251Z,1005.48
2017-09-07T03:11:32.824Z,1005.48
2017-09-07T03:12:13.431Z,1005.47
2017-09-07T03:12:53.958Z,1005.49
2017-09-07T03:13:34.529Z,1005.5
2017-09-07T03:14:15.102Z,1005.51
2017-09-07T03:14:55.698Z,1005.5
2017-09-07T03:15:36.274Z,1005.52
2017-09-07T03:16:16.834Z,1005.51
2017-09-07T03:16:57.394Z,1005.59
2017-09-07T03:17:37.958Z,1005.55
2017-09-07T03:18:18.537Z,1005.53
2017-09-07T03:18:59.120Z,1005.49
2017-09-07T03:19:39.683Z,1005.5
2017-09-07T03:20:20.253Z,1005.52
2017-09-07T03:21:00.842Z,1005.5
2017-09-07T03:21:41.394Z,1005.44
2017-09-07T03:22:21.979Z,1005.49
2017-09-07T03:23:02.576Z,1005.52
2017-09-07T03:23:43.157Z,1005.56
2017-09-07T03:24:23.784Z,1005.53
2017-09-07T03:25:04.394Z,1005.58
2017-09-07T03:25:44.989Z,1005.57
2017-09-07T03:26:25.567Z,1005.54
2017-09-07T03:27:06.151Z,1005.5
2017-09-07T03:27:46.736Z,1005.51
2017-09-07T03:28:27.313Z,1005.49
2017-09-07T03:29:07.889Z,1005.52
2017-09-07T03:29:48.464Z,1005.49
2017-09-07T03:30:29.031Z,1005.51
2017-09-07T03:31:09.598Z,1005.5
2017-09-07T03:31:50.171Z,1005.51
2017-09-07T03:32:30.752Z,1005.49
2017-09-07T03:33:11.316Z,1005.54
2017-09-07T03:33:51.886Z,1005.54
2017-09-07T03:34:32.450Z,1005.55
2017-09-07T03:35:13.014Z,1005.52
2017-09-07T03:35:53.588Z,1005.55
2017-09-07T03:36:34.186Z,1005.55
2017-09-07T03:37:14.742Z,1005.56
2017-09-07T03:37:55.315Z,1005.53
2017-09-07T03:38:35.878Z,1005.54
2017-09-07T03:39:16.457Z,1005.53
2017-09-07T03:39:57.049Z,1005.55
2017-09-07T03:40:37.620Z,1005.54
2017-09-07T03:41:18.193Z,1005.55
2017-09-07T03:41:58.772Z,1005.48
2017-09-07T03:42:39.345Z,1005.5
2017-09-07T03:43:19.907Z,1005.55
2017-09-07T03:44:00.504Z,1005.56
2017-09-07T03:44:41.080Z,1005.55
2017-09-07T03:45:21.697Z,1005.54
2017-09-07T03:46:02.339Z,1005.56
2017-09-07T03:46:42.934Z,1005.52
2017-09-07T03:47:23.506Z,1005.55
2017-09-07T03:48:04.106Z,1005.5
2017-09-07T03:48:44.681Z,1005.61
2017-09-07T03:49:25.238Z,1005.6
2017-09-07T03:50:05.837Z,1005.59
2017-09-07T03:50:46.414Z,1005.52
2017-09-07T03:51:26.985Z,1005.57
2017-09-07T03:52:07.572Z,1005.57
2017-09-07T03:52:48.134Z,1005.59
2017-09-07T03:53:28.715Z,1005.58
2017-09-07T03:54:09.295Z,1005.58
2017-09-07T03:54:49.872Z,1005.57
2017-09-07T03:55:30.436Z,1005.52
2017-09-07T03:56:11.017Z,1005.55
2017-09-07T03:56:51.595Z,1005.54
2017-09-07T03:57:32.182Z,1005.53
2017-09-07T03:58:12.734Z,1005.56
2017-09-07T03:58:53.294Z,1005.58
2017-09-07T03:59:33.860Z,1005.6
2017-09-07T04:00:14.448Z,1005.56
2017-09-07T04:00:55.014Z,1005.6
2017-09-07T04:01:35.587Z,1005.58
2017-09-07T04:02:16.145Z,1005.57
2017-09-07T04:02:56.699Z,1005.59
2017-09-07T04:03:37.290Z,1005.57
2017-09-07T04:04:17.875Z,1005.61
2017-09-07T04:04:58.451Z,1005.57
2017-09-07T04:05:39.020Z,1005.59
2017-09-07T04:06:19.572Z,1005.62
2017-09-07T04:07:00.137Z,1005.58
2017-09-07T04:07:40.714Z,1005.65
2017-09-07T04:08:21.303Z,1005.63
2017-09-07T04:09:01.864Z,1005.62
2017-09-07T04:09:42.417Z,1005.59
2017-09-07T04:10:22.990Z,1005.6
2017-09-07T04:11:03.570Z,1005.65
2017-09-07T04:11:44.154Z,1005.6
2017-09-07T04:12:24.743Z,1005.62
2017-09-07T04:13:05.300Z,1005.65
2017-09-07T04:13:45.905Z,1005.65
2017-09-07T04:14:26.457Z,1005.61
2017-09-07T04:15:07.056Z,1005.63
2017-09-07T04:15:47.624Z,1005.58
2017-09-07T04:16:28.182Z,1005.67
2017-09-07T04:17:08.761Z,1005.67
2017-09-07T04:17:49.329Z,1005.62
2017-09-07T04:18:29.932Z,1005.65
2017-09-07T04:19:10.514Z,1005.61
2017-09-07T04:19:51.072Z,1005.6
2017-09-07T04:20:31.662Z,1005.64
2017-09-07T04:21:12.236Z,1005.59
2017-09-07T04:21:52.830Z,1005.63
2017-09-07T04:22:33.377Z,1005.65
2017-09-07T04:23:13.975Z,1005.55
2017-09-07T04:23:54.520Z,1005.63
2017-09-07T04:24:35.084Z,1005.59
2017-09-07T04:25:15.648Z,1005.58
2017-09-07T04:25:56.223Z,1005.61
2017-09-07T04:26:36.784Z,1005.63
2017-09-07T04:27:17.359Z,1005.6
2017-09-07T04:27:57.926Z,1005.64
2017-09-07T04:28:38.544Z,1005.61
2017-09-07T04:29:19.138Z,1005.6
2017-09-07T04:29:59.706Z,1005.56
2017-09-07T04:30:40.273Z,1005.58
2017-09-07T04:31:20.856Z,1005.64
2017-09-07T04:32:01.423Z,1005.62
2017-09-07T04:32:41.983Z,1005.61
2017-09-07T04:33:22.668Z,1005.59
2017-09-07T04:34:03.270Z,1005.62
2017-09-07T04:34:43.849Z,1005.63
2017-09-07T04:35:24.405Z,1005.66
2017-09-07T04:36:04.964Z,1005.58
2017-09-07T04:36:45.541Z,1005.6
2017-09-07T04:37:26.144Z,1005.54
2017-09-07T04:38:06.707Z,1005.6
2017-09-07T04:38:47.313Z,1005.6
2017-09-07T04:39:27.924Z,1005.59
2017-09-07T04:40:08.503Z,1005.62
2017-09-07T04:40:49.084Z,1005.6
2017-09-07T04:41:30.381Z,1005.6
2017-09-07T04:42:10.951Z,1005.64
2017-09-07T04:42:51.516Z,1005.63
2017-09-07T04:43:32.075Z,1005.66
2017-09-07T04:44:12.633Z,1005.61
2017-09-07T04:44:53.188Z,1005.63
2017-09-07T04:45:33.752Z,1005.62
2017-09-07T04:46:14.313Z,1005.65
2017-09-07T04:46:54.891Z,1005.63
2017-09-07T04:47:35.467Z,1005.67
2017-09-07T04:48:16.035Z,1005.63
2017-09-07T04:48:56.613Z,1005.65
2017-09-07T04:49:37.166Z,1005.66
2017-09-07T04:50:17.735Z,1005.7
2017-09-07T04:50:58.306Z,1005.65
2017-09-07T04:51:38.864Z,1005.71
2017-09-07T04:52:19.441Z,1005.73
2017-09-07T04:53:00.026Z,1005.67
2017-09-07T04:53:40.607Z,1005.7
2017-09-07T04:54:21.174Z,1005.69
2017-09-07T04:55:01.733Z,1005.72
2017-09-07T04:55:42.305Z,1005.69
2017-09-07T04:56:22.869Z,1005.75
2017-09-07T04:57:03.458Z,1005.73
2017-09-07T04:57:44.022Z,1005.72
2017-09-07T04:58:24.605Z,1005.74
2017-09-07T04:59:05.173Z,1005.75
2017-09-07T04:59:45.735Z,1005.77
2017-09-07T05:00:26.301Z,1005.8
2017-09-07T05:01:06.916Z,1005.81
2017-09-07T05:01:47.481Z,1005.8
2017-09-07T05:02:28.052Z,1005.79
2017-09-07T05:03:08.686Z,1005.83
2017-09-07T05:03:49.254Z,1005.85
2017-09-07T05:04:29.848Z,1005.86
2017-09-07T05:05:10.427Z,1005.88
2017-09-07T05:05:50.987Z,1005.81
2017-09-07T05:06:31.573Z,1005.87
2017-09-07T05:07:12.199Z,1005.89
2017-09-07T05:07:52.761Z,1005.83
2017-09-07T05:08:33.338Z,1005.86
2017-09-07T05:09:13.909Z,1005.79
2017-09-07T05:09:54.480Z,1005.87
2017-09-07T05:10:35.055Z,1005.87
2017-09-07T05:11:15.636Z,1005.87
2017-09-07T05:11:56.234Z,1005.86
2017-09-07T05:12:36.814Z,1005.84
2017-09-07T05:13:17.391Z,1005.85
2017-09-07T05:13:57.958Z,1005.84
2017-09-07T05:14:38.556Z,1005.81
2017-09-07T05:15:19.148Z,1005.81
2017-09-07T05:15:59.737Z,1005.82
2017-09-07T05:16:40.303Z,1005.84
2017-09-07T05:17:20.884Z,1005.87
2017-09-07T05:18:01.458Z,1005.81
2017-09-07T05:18:42.041Z,1005.84
2017-09-07T05:19:22.630Z,1005.87
2017-09-07T05:20:03.188Z,1005.87
2017-09-07T05:20:43.752Z,1005.81
2017-09-07T05:21:24.320Z,1005.85
2017-09-07T05:22:04.884Z,1005.85
2017-09-07T05:22:45.454Z,1005.8
2017-09-07T05:23:26.020Z,1005.86
2017-09-07T05:24:06.595Z,1005.87
2017-09-07T05:24:47.168Z,1005.86
2017-09-07T05:25:27.739Z,1005.88
2017-09-07T05:26:08.321Z,1005.85
2017-09-07T05:26:48.911Z,1005.83
2017-09-07T05:27:29.479Z,1005.86
2017-09-07T05:28:10.038Z,1005.86
2017-09-07T05:28:51.475Z,1005.83
2017-09-07T05:29:32.048Z,1005.84
2017-09-07T05:30:12.614Z,1005.84
2017-09-07T05:30:53.201Z,1005.86
2017-09-07T05:31:33.969Z,1005.85
2017-09-07T05:32:14.937Z,1005.85
2017-09-07T05:32:55.501Z,1005.83
2017-09-07T05:33:36.072Z,1005.83
2017-09-07T05:34:16.637Z,1005.92
2017-09-07T05:34:57.244Z,1005.87
2017-09-07T05:35:37.818Z,1005.89
2017-09-07T05:36:18.389Z,1005.87
2017-09-07T05:36:58.979Z,1005.89
2017-09-07T05:37:39.821Z,1005.92
2017-09-07T05:38:20.510Z,1005.95
2017-09-07T05:39:01.128Z,1005.92
2017-09-07T05:39:41.695Z,1005.89
2017-09-07T05:40:22.273Z,1005.89
2017-09-07T05:41:02.835Z,1005.9
2017-09-07T05:41:43.433Z,1005.89
2017-09-07T05:42:24.004Z,1005.92
2017-09-07T05:43:04.736Z,1005.93
2017-09-07T05:43:45.305Z,1005.91
2017-09-07T05:44:25.891Z,1005.9
2017-09-07T05:45:06.477Z,1005.89
2017-09-07T05:45:47.304Z,1005.91
2017-09-07T05:46:27.902Z,1005.94
2017-09-07T05:47:08.472Z,1005.92
2017-09-07T05:47:49.043Z,1005.88
2017-09-07T05:48:29.609Z,1005.91
2017-09-07T05:49:10.212Z,1005.92
2017-09-07T05:49:50.750Z,1005.96
2017-09-07T05:50:31.315Z,1005.96
2017-09-07T05:51:12.083Z,1005.94
2017-09-07T05:51:52.658Z,1005.94
2017-09-07T05:52:33.216Z,1006.01
2017-09-07T05:53:13.784Z,1006
2017-09-07T05:53:54.371Z,1006
2017-09-07T05:54:34.941Z,1006.02
2017-09-07T05:55:15.501Z,1005.95
2017-09-07T05:55:56.067Z,1006.01
2017-09-07T05:56:36.622Z,1006.04
2017-09-07T05:57:17.205Z,1006.06
2017-09-07T05:57:57.824Z,1006.02
2017-09-07T05:58:39.034Z,1006.05
2017-09-07T05:59:19.613Z,1006.08
2017-09-07T06:00:00.183Z,1005.99
2017-09-07T06:00:40.873Z,1006.02
2017-09-07T06:01:21.434Z,1006.04
2017-09-07T06:02:02.038Z,1006.03
2017-09-07T06:02:42.629Z,1006.06
2017-09-07T06:03:23.211Z,1006.07
2017-09-07T06:04:03.778Z,1006.03
2017-09-07T06:04:44.375Z,1006.03
2017-09-07T06:05:25.010Z,1006.06
2017-09-07T06:06:05.599Z,1006.01
2017-09-07T06:06:46.204Z,1006.06
2017-09-07T06:07:26.774Z,1006.07
2017-09-07T06:08:07.350Z,1006.08
2017-09-07T06:08:47.922Z,1006.12
2017-09-07T06:09:28.475Z,1006.09
2017-09-07T06:10:09.118Z,1006.13
2017-09-07T06:10:49.712Z,1006.11
2017-09-07T06:11:30.297Z,1006.13
2017-09-07T06:12:10.854Z,1006.1
2017-09-07T06:12:51.428Z,1006.11
2017-09-07T06:13:32.022Z,1006.09
2017-09-07T06:14:12.594Z,1006.1
2017-09-07T06:14:53.171Z,1006.15
2017-09-07T06:15:33.734Z,1006.1
2017-09-07T06:16:14.314Z,1006.1
2017-09-07T06:16:54.870Z,1006.13
2017-09-07T06:17:35.436Z,1006.12
2017-09-07T06:18:16.012Z,1006.12
2017-09-07T06:18:56.609Z,1006.14
2017-09-07T06:19:37.169Z,1006.1
2017-09-07T06:20:17.743Z,1006.15
2017-09-07T06:20:58.310Z,1006.09
2017-09-07T06:21:38.878Z,1006.14
2017-09-07T06:22:19.447Z,1006.12
2017-09-07T06:23:00.021Z,1006.07
2017-09-07T06:23:40.588Z,1006.18
2017-09-07T06:24:21.181Z,1006.16
2017-09-07T06:25:01.792Z,1006.17
2017-09-07T06:25:42.334Z,1006.16
2017-09-07T06:26:22.927Z,1006.22
2017-09-07T06:27:03.546Z,1006.19
2017-09-07T06:27:44.141Z,1006.16
2017-09-07T06:28:24.703Z,1006.2
2017-09-07T06:29:05.281Z,1006.13
2017-09-07T06:29:45.851Z,1006.16
2017-09-07T06:30:26.431Z,1006.13
2017-09-07T06:31:07.002Z,1006.14
2017-09-07T06:31:47.560Z,1006.12
2017-09-07T06:32:28.122Z,1006.08
2017-09-07T06:33:08.727Z,1006.08
2017-09-07T06:33:49.763Z,1006.09
2017-09-07T06:34:30.357Z,1006.1
2017-09-07T06:35:10.964Z,1006.1
2017-09-07T06:35:51.539Z,1006.1
2017-09-07T06:36:32.105Z,1006.06
2017-09-07T06:37:12.682Z,1006.06
2017-09-07T06:37:53.274Z,1006.05
2017-09-07T06:38:33.845Z,1006.08
2017-09-07T06:39:14.425Z,1006.12
2017-09-07T06:39:55.009Z,1006.06
2017-09-07T06:40:35.585Z,1006.03
2017-09-07T06:41:16.144Z,1006.1
2017-09-07T06:41:56.720Z,1006.04
2017-09-07T06:42:37.276Z,1006.11
2017-09-07T06:43:17.844Z,1006.09
2017-09-07T06:43:58.432Z,1006.14
2017-09-07T06:44:38.997Z,1006.09
2017-09-07T06:45:19.575Z,1006.08
2017-09-07T06:46:00.189Z,1006.07
2017-09-07T06:46:40.756Z,1006.03
2017-09-07T06:47:21.331Z,1006.08
2017-09-07T06:48:01.917Z,1006.06
2017-09-07T06:48:42.484Z,1006.08
2017-09-07T06:49:23.063Z,1006.06
2017-09-07T06:50:03.629Z,1006.1
2017-09-07T06:50:44.204Z,1006.1
2017-09-07T06:51:24.787Z,1006.05
2017-09-07T06:52:05.348Z,1006.05
2017-09-07T06:52:46.517Z,1006.05
2017-09-07T06:53:27.083Z,1006.07
2017-09-07T06:54:07.639Z,1006.08
2017-09-07T06:54:48.215Z,1006.1
2017-09-07T06:55:28.780Z,1006.09
2017-09-07T06:56:09.365Z,1006.02
2017-09-07T06:56:49.930Z,1006.08
2017-09-07T06:57:30.495Z,1006.12
2017-09-07T06:58:11.100Z,1006.15
2017-09-07T06:58:51.668Z,1006.1
2017-09-07T06:59:32.250Z,1006.12
2017-09-07T07:00:12.814Z,1006.12
2017-09-07T07:00:53.388Z,1006.08
2017-09-07T07:01:33.958Z,1006.14
2017-09-07T07:02:14.523Z,1006.14
2017-09-07T07:02:55.189Z,1006.14
2017-09-07T07:03:35.793Z,1006.12
2017-09-07T07:04:16.352Z,1006.14
2017-09-07T07:04:56.912Z,1006.17
2017-09-07T07:05:37.491Z,1006.19
2017-09-07T07:06:18.069Z,1006.16
2017-09-07T07:06:58.626Z,1006.17
2017-09-07T07:07:39.208Z,1006.17
2017-09-07T07:08:19.790Z,1006.2
2017-09-07T07:09:00.443Z,1006.17
2017-09-07T07:09:41.026Z,1006.19
2017-09-07T07:10:21.656Z,1006.15
2017-09-07T07:11:02.264Z,1006.12
2017-09-07T07:11:42.909Z,1006.08
2017-09-07T07:12:23.469Z,1006.11
2017-09-07T07:13:04.041Z,1006.16
2017-09-07T07:13:44.653Z,1006.12
2017-09-07T07:14:25.258Z,1006.16
2017-09-07T07:15:05.840Z,1006.07
2017-09-07T07:15:46.399Z,1006.05
2017-09-07T07:16:26.975Z,1006.06
2017-09-07T07:17:07.578Z,1006.18
2017-09-07T07:17:48.144Z,1006.12
2017-09-07T07:18:28.752Z,1006.03
2017-09-07T07:19:09.349Z,1006.1
2017-09-07T07:19:49.936Z,1006.09
2017-09-07T07:20:30.520Z,1006.16
2017-09-07T07:21:11.485Z,1006.26
2017-09-07T07:21:52.061Z,1006.19
2017-09-07T07:22:32.663Z,1006.27
2017-09-07T07:23:13.242Z,1006.25
2017-09-07T07:23:53.819Z,1006.16
2017-09-07T07:24:34.492Z,1006.2
2017-09-07T07:25:15.062Z,1006.3
2017-09-07T07:25:55.807Z,1006.2
2017-09-07T07:26:36.383Z,1006.27
2017-09-07T07:27:16.944Z,1006.23
2017-09-07T07:27:57.506Z,1006.2
2017-09-07T07:28:38.078Z,1006.15
2017-09-07T07:29:18.664Z,1006.23
2017-09-07T07:29:59.240Z,1006.27
2017-09-07T07:30:39.812Z,1006.19
2017-09-07T07:31:20.387Z,1006.28
2017-09-07T07:32:00.964Z,1006.24
2017-09-07T07:32:41.541Z,1006.24
2017-09-07T07:33:22.101Z,1006.21
2017-09-07T07:34:02.681Z,1006.15
2017-09-07T07:34:43.379Z,1006.28
2017-09-07T07:35:24.075Z,1006.4
2017-09-07T07:36:04.647Z,1006.48
2017-09-07T07:36:45.406Z,1006.28
2017-09-07T07:37:26.016Z,1006.42
2017-09-07T07:38:06.614Z,1006.49
2017-09-07T07:38:47.188Z,1006.34
2017-09-07T07:39:27.776Z,1006.46
2017-09-07T07:40:08.354Z,1006.48
2017-09-07T07:40:48.948Z,1006.36
2017-09-07T07:41:29.536Z,1006.51
2017-09-07T07:42:10.124Z,1006.5
2017-09-07T07:42:50.774Z,1006.43
2017-09-07T07:43:31.358Z,1006.44
2017-09-07T07:44:11.940Z,1006.35
2017-09-07T07:44:52.508Z,1006.3
2017-09-07T07:45:33.116Z,1006.33
2017-09-07T07:46:13.708Z,1006.32
2017-09-07T07:46:54.277Z,1006.5
2017-09-07T07:47:34.863Z,1006.46
2017-09-07T07:48:15.445Z,1006.23
2017-09-07T07:48:56.042Z,1006.22
2017-09-07T07:49:36.621Z,1006.31
2017-09-07T07:50:17.195Z,1006.26
2017-09-07T07:50:57.780Z,1006.31
2017-09-07T07:51:38.502Z,1006.3
2017-09-07T07:52:19.094Z,1006.31
2017-09-07T07:52:59.676Z,1006.33
2017-09-07T07:53:40.271Z,1006.3
2017-09-07T07:54:20.837Z,1006.33
2017-09-07T07:55:01.399Z,1006.31
2017-09-07T07:55:41.985Z,1006.31
2017-09-07T07:56:22.664Z,1006.32
2017-09-07T07:57:03.238Z,1006.46
2017-09-07T07:57:43.836Z,1006.51
2017-09-07T07:58:24.446Z,1006.5
2017-09-07T07:59:05.049Z,1006.42
2017-09-07T07:59:45.724Z,1006.4
2017-09-07T08:00:26.313Z,1006.3
2017-09-07T08:01:06.887Z,1006.29
2017-09-07T08:01:47.575Z,1006.36
2017-09-07T08:02:29.205Z,1006.37
2017-09-07T08:03:09.787Z,1006.31
2017-09-07T08:03:50.367Z,1006.31
2017-09-07T08:04:30.931Z,1006.28
2017-09-07T08:05:11.500Z,1006.31
2017-09-07T08:05:52.081Z,1006.4
2017-09-07T08:06:32.642Z,1006.37
2017-09-07T08:07:13.228Z,1006.31
2017-09-07T08:07:53.858Z,1006.35
2017-09-07T08:08:34.439Z,1006.37
2017-09-07T08:09:15.017Z,1006.29
2017-09-07T08:09:55.598Z,1006.25
2017-09-07T08:10:36.205Z,1006.28
2017-09-07T08:11:16.779Z,1006.31
2017-09-07T08:11:57.345Z,1006.28
2017-09-07T08:12:37.917Z,1006.3